Time;durP1;ratioP1;P1;durP2;ratioP2;P2;SDS_P1;SDS_P2;PMS_P1;PMS_P2;Temp;Humidity;BMP_temperature;BMP_pressure;BME280_temperature;BME280_humidity;BME280_pressure;Samples;Min_cycle;Max_cycle;Signal;HPM_P1;HPM_P2
2021/12/12 00:01:00;;;;;;;95.80;52.00;;;-1.20;99.90;;;;;;2055303;28;20039;-71
2021/12/12 00:02:08;;;;;;;96.72;52.95;;;-1.20;99.90;;;;;;2054971;28;20043;-70
2021/12/12 00:03:21;;;;;;;98.13;54.13;;;-1.30;99.90;;;;;;2053960;28;20458;-69
2021/12/12 00:04:33;;;;;;;99.10;53.80;;;-1.30;99.90;;;;;;2054337;28;20023;-71
2021/12/12 00:05:44;;;;;;;96.38;52.65;;;-1.30;99.90;;;;;;2054866;28;20107;-70
2021/12/12 00:06:53;;;;;;;95.97;52.42;;;-1.30;99.90;;;;;;2054850;28;20041;-69
2021/12/12 00:07:54;;;;;;;97.75;52.58;;;-1.30;99.90;;;;;;2055133;28;20113;-70
2021/12/12 00:09:00;;;;;;;95.72;53.08;;;-1.30;99.90;;;;;;2054721;28;20078;-70
2021/12/12 00:10:08;;;;;;;96.90;52.70;;;-1.30;99.90;;;;;;2054317;28;20038;-70
2021/12/12 00:11:12;;;;;;;96.72;53.80;;;-1.30;99.90;;;;;;2062739;28;20022;-69
2021/12/12 00:12:16;;;;;;;101.07;54.72;;;-1.30;99.90;;;;;;2062514;28;20719;-69
2021/12/12 00:13:23;;;;;;;100.38;53.78;;;-1.30;99.90;;;;;;2062543;28;20765;-70
2021/12/12 00:14:30;;;;;;;96.78;52.92;;;-1.30;99.90;;;;;;2053989;28;20027;-70
2021/12/12 00:15:31;;;;;;;97.78;53.58;;;-1.30;99.90;;;;;;2055140;28;20112;-70
2021/12/12 00:16:32;;;;;;;101.28;54.65;;;-1.30;99.90;;;;;;2063001;28;20026;-69
2021/12/12 00:17:33;;;;;;;99.75;55.08;;;-1.30;99.90;;;;;;2061139;28;20030;-69
2021/12/12 00:18:34;;;;;;;117.47;60.83;;;-1.30;99.90;;;;;;2061449;28;20030;-69
2021/12/12 00:19:36;;;;;;;110.40;58.65;;;-1.20;99.90;;;;;;2062231;28;20019;-70
2021/12/12 00:20:37;;;;;;;106.57;55.83;;;-1.20;99.90;;;;;;2062479;28;20479;-70
2021/12/12 00:21:41;;;;;;;102.32;54.97;;;-1.20;99.90;;;;;;2061885;28;20057;-69
2021/12/12 00:22:42;;;;;;;100.63;54.28;;;-1.20;99.90;;;;;;2062321;28;20045;-70
2021/12/12 00:23:42;;;;;;;95.82;52.30;;;-1.20;99.90;;;;;;2061794;28;20434;-70
2021/12/12 00:24:43;;;;;;;103.72;55.88;;;-1.20;99.90;;;;;;2053953;28;20125;-70
2021/12/12 00:25:51;;;;;;;103.28;56.60;;;-1.20;99.90;;;;;;2054823;28;20888;-70
2021/12/12 00:26:53;;;;;;;97.00;53.50;;;-1.20;99.90;;;;;;2054698;28;20030;-70
2021/12/12 00:27:54;;;;;;;96.95;53.15;;;-1.10;99.90;;;;;;2054275;28;20100;-70
2021/12/12 00:28:55;;;;;;;100.63;53.53;;;-1.20;99.90;;;;;;2053548;28;20529;-70
2021/12/12 00:30:02;;;;;;;103.63;53.60;;;-1.20;99.90;;;;;;2054355;28;20019;-70
2021/12/12 00:31:09;;;;;;;105.75;55.72;;;-1.20;99.90;;;;;;2046873;28;20027;-70
2021/12/12 00:32:13;;;;;;;109.45;57.20;;;-1.10;99.90;;;;;;2053294;28;20405;-70
2021/12/12 00:33:14;;;;;;;103.00;53.45;;;-1.10;99.90;;;;;;2054646;28;20406;-70
2021/12/12 00:34:15;;;;;;;98.75;52.90;;;-1.10;99.90;;;;;;2054405;28;20043;-70
2021/12/12 00:35:16;;;;;;;91.70;49.78;;;-1.10;99.90;;;;;;2053816;28;20042;-70
2021/12/12 00:36:18;;;;;;;90.38;50.17;;;-1.10;99.90;;;;;;2054174;28;20499;-70
2021/12/12 00:37:20;;;;;;;86.25;47.92;;;-1.10;99.90;;;;;;2054280;28;20038;-70
2021/12/12 00:38:25;;;;;;;88.13;47.92;;;-1.10;99.90;;;;;;2054318;28;20469;-70
2021/12/12 00:39:29;;;;;;;87.18;47.55;;;-1.20;99.90;;;;;;2054050;28;20042;-70
2021/12/12 00:40:33;;;;;;;99.78;52.63;;;-1.20;99.90;;;;;;2054677;28;20031;-70
2021/12/12 00:41:42;;;;;;;104.47;53.75;;;-1.10;99.90;;;;;;2054294;28;20037;-70
2021/12/12 00:42:45;;;;;;;94.70;50.78;;;-1.10;99.90;;;;;;2054696;28;20039;-69
2021/12/12 00:43:49;;;;;;;97.88;51.65;;;-1.10;99.90;;;;;;2054234;28;20115;-71
2021/12/12 00:44:54;;;;;;;96.03;51.50;;;-1.10;99.90;;;;;;2054116;28;20070;-70
2021/12/12 00:45:59;;;;;;;94.70;51.00;;;-1.10;99.90;;;;;;2054220;28;20034;-70
2021/12/12 00:47:02;;;;;;;92.95;48.83;;;-1.10;99.90;;;;;;2053653;28;20068;-71
2021/12/12 00:48:07;;;;;;;90.70;48.95;;;-1.20;99.90;;;;;;2054748;28;20038;-71
2021/12/12 00:49:08;;;;;;;89.20;48.70;;;-1.20;99.90;;;;;;2054818;28;20031;-71
2021/12/12 00:50:14;;;;;;;89.82;48.42;;;-1.20;99.90;;;;;;2054604;28;20256;-71
2021/12/12 00:51:18;;;;;;;90.07;47.85;;;-1.20;99.90;;;;;;2054836;28;20085;-69
2021/12/12 00:52:21;;;;;;;92.88;50.13;;;-1.20;99.90;;;;;;2054373;28;20037;-69
2021/12/12 00:53:22;;;;;;;93.70;49.05;;;-1.20;99.90;;;;;;2054610;28;20023;-70
2021/12/12 00:54:30;;;;;;;88.82;48.65;;;-1.20;99.90;;;;;;2054097;28;20034;-70
2021/12/12 00:55:37;;;;;;;92.22;49.17;;;-1.20;99.90;;;;;;2047696;28;20123;-70
2021/12/12 00:56:38;;;;;;;85.68;47.17;;;-1.20;99.90;;;;;;2054130;28;20027;-69
2021/12/12 00:57:39;;;;;;;82.68;45.67;;;-1.20;99.90;;;;;;2054819;28;20035;-71
2021/12/12 00:58:40;;;;;;;85.07;46.15;;;-1.20;99.90;;;;;;2058415;28;20031;-70
2021/12/12 00:59:41;;;;;;;79.68;44.00;;;-1.20;99.90;;;;;;2054954;28;20593;-71
2021/12/12 01:00:49;;;;;;;83.15;45.88;;;-1.20;99.90;;;;;;2055978;28;20035;-70
2021/12/12 01:01:51;;;;;;;83.43;45.42;;;-1.20;99.90;;;;;;2054419;28;20479;-70
2021/12/12 01:02:54;;;;;;;82.40;45.97;;;-1.20;99.90;;;;;;2055623;28;20106;-70
2021/12/12 01:04:00;;;;;;;84.63;46.05;;;-1.30;99.90;;;;;;2055955;28;20039;-70
2021/12/12 01:05:06;;;;;;;84.13;45.85;;;-1.30;99.90;;;;;;2055999;28;20555;-70
2021/12/12 01:06:11;;;;;;;85.47;47.63;;;-1.30;99.90;;;;;;2054883;28;20031;-70
2021/12/12 01:07:16;;;;;;;85.75;46.78;;;-1.30;99.90;;;;;;2054259;28;20045;-69
2021/12/12 01:08:17;;;;;;;84.45;46.28;;;-1.30;99.90;;;;;;2053292;28;20659;-70
2021/12/12 01:09:33;;;;;;;85.40;47.45;;;-1.30;99.90;;;;;;2054157;28;20031;-70
2021/12/12 01:10:38;;;;;;;89.38;48.03;;;-1.30;99.90;;;;;;2051254;28;20027;-70
2021/12/12 01:11:43;;;;;;;88.05;48.47;;;-1.30;99.90;;;;;;2054610;28;20749;-70
2021/12/12 01:12:45;;;;;;;87.95;48.03;;;-1.30;99.90;;;;;;2054539;28;20070;-70
2021/12/12 01:13:47;;;;;;;87.95;48.92;;;-1.30;99.90;;;;;;2054675;28;20034;-70
2021/12/12 01:14:54;;;;;;;93.20;49.40;;;-1.30;99.90;;;;;;2054639;28;20452;-70
2021/12/12 01:16:07;;;;;;;88.03;49.08;;;-1.20;99.90;;;;;;2053687;28;20027;-70
2021/12/12 01:17:15;;;;;;;89.22;48.28;;;-1.30;99.90;;;;;;2053737;28;20038;-70
2021/12/12 01:18:21;;;;;;;90.30;48.53;;;-1.30;99.90;;;;;;2053290;28;20164;-70
2021/12/12 01:19:51;;;;;;;85.50;46.65;;;-1.30;99.90;;;;;;2053774;28;20073;-69
2021/12/12 01:21:00;;;;;;;84.10;45.15;;;-1.30;99.90;;;;;;2053356;28;20050;-70
2021/12/12 01:22:06;;;;;;;84.78;45.53;;;-1.30;99.90;;;;;;2053713;28;20039;-70
2021/12/12 01:23:15;;;;;;;87.93;47.55;;;-1.30;99.90;;;;;;2060154;28;20038;-70
2021/12/12 01:24:24;;;;;;;84.95;45.55;;;-1.30;99.90;;;;;;2062015;28;20374;-70
2021/12/12 01:25:33;;;;;;;82.00;45.88;;;-1.30;99.90;;;;;;2062372;28;20402;-70
2021/12/12 01:26:36;;;;;;;84.95;45.80;;;-1.30;99.90;;;;;;2055228;28;20542;-71
2021/12/12 01:27:36;;;;;;;84.25;46.13;;;-1.40;99.90;;;;;;2061959;28;20035;-70
2021/12/12 01:28:42;;;;;;;83.90;46.28;;;-1.40;99.90;;;;;;2062246;28;20034;-70
2021/12/12 01:29:43;;;;;;;84.28;45.30;;;-1.40;99.90;;;;;;2061676;28;20034;-70
2021/12/12 01:30:46;;;;;;;87.53;46.22;;;-1.40;99.90;;;;;;2063094;28;20041;-71
2021/12/12 01:31:48;;;;;;;87.22;45.60;;;-1.40;99.90;;;;;;2062488;28;20480;-70
2021/12/12 01:32:50;;;;;;;82.68;44.65;;;-1.40;99.90;;;;;;2063202;28;20023;-70
2021/12/12 01:33:59;;;;;;;84.40;45.97;;;-1.40;99.90;;;;;;2059896;28;20367;-70
2021/12/12 01:35:00;;;;;;;79.35;44.38;;;-1.40;99.90;;;;;;2052909;28;20038;-70
2021/12/12 01:36:08;;;;;;;82.18;44.60;;;-1.40;99.90;;;;;;2055888;28;20034;-70
2021/12/12 01:39:47;;;;;;;79.93;43.53;;;-1.50;99.90;;;;;;2055700;28;20027;-70
2021/12/12 01:40:54;;;;;;;78.38;43.88;;;-1.50;99.90;;;;;;2047233;28;20039;-70
2021/12/12 01:42:05;;;;;;;79.15;42.97;;;-1.50;99.90;;;;;;2062257;28;20090;-72
2021/12/12 01:43:20;;;;;;;79.57;43.42;;;-1.50;99.90;;;;;;2065035;28;20043;-70
2021/12/12 01:44:43;;;;;;;79.50;42.47;;;-1.50;99.90;;;;;;2055696;28;20406;-70
2021/12/12 01:45:46;;;;;;;80.28;43.83;;;-1.50;99.90;;;;;;2054831;28;20826;-70
2021/12/12 01:47:11;;;;;;;85.25;44.75;;;-1.50;99.90;;;;;;2054999;28;20058;-70
2021/12/12 01:48:20;;;;;;;83.25;43.35;;;-1.50;99.90;;;;;;2050999;28;20055;-69
2021/12/12 01:49:25;;;;;;;79.73;42.67;;;-1.50;99.90;;;;;;2055864;28;20087;-70
2021/12/12 01:50:34;;;;;;;77.82;42.90;;;-1.50;99.90;;;;;;2055626;28;20277;-70
2021/12/12 01:51:38;;;;;;;78.88;43.33;;;-1.50;99.90;;;;;;2055306;28;20510;-70
2021/12/12 01:52:41;;;;;;;82.35;43.90;;;-1.50;99.90;;;;;;2055314;28;20026;-70
2021/12/12 01:53:47;;;;;;;80.55;44.28;;;-1.50;99.90;;;;;;2055177;28;20093;-69
2021/12/12 01:54:52;;;;;;;82.55;44.00;;;-1.50;99.90;;;;;;2055123;28;20034;-70
2021/12/12 01:56:12;;;;;;;84.05;44.22;;;-1.50;99.90;;;;;;2055002;28;20398;-70
2021/12/12 01:57:17;;;;;;;81.90;44.17;;;-1.50;99.90;;;;;;2055806;28;20034;-70
2021/12/12 01:58:24;;;;;;;81.00;44.42;;;-1.50;99.90;;;;;;2055070;28;20038;-70
2021/12/12 01:59:29;;;;;;;82.88;44.63;;;-1.50;99.90;;;;;;2054843;28;20046;-70
2021/12/12 02:00:35;;;;;;;80.82;42.85;;;-1.50;99.90;;;;;;2055395;28;20022;-71
2021/12/12 02:01:51;;;;;;;81.22;43.58;;;-1.50;99.90;;;;;;2055310;28;20073;-71
2021/12/12 02:02:53;;;;;;;80.80;43.70;;;-1.50;99.90;;;;;;2055638;28;20027;-70
2021/12/12 02:04:00;;;;;;;82.47;43.70;;;-1.60;99.90;;;;;;2055649;28;20025;-70
2021/12/12 02:05:12;;;;;;;81.80;42.63;;;-1.60;99.90;;;;;;2055649;28;20019;-70
2021/12/12 02:06:15;;;;;;;80.70;41.78;;;-1.60;99.90;;;;;;2055832;28;20054;-71
2021/12/12 02:07:20;;;;;;;84.25;44.30;;;-1.60;99.90;;;;;;2055286;28;20049;-70
2021/12/12 02:08:22;;;;;;;78.20;43.35;;;-1.60;99.90;;;;;;2054315;28;20030;-70
2021/12/12 02:09:23;;;;;;;79.65;42.17;;;-1.50;99.90;;;;;;2055697;28;20540;-70
2021/12/12 02:10:32;;;;;;;76.40;41.33;;;-1.60;99.90;;;;;;2054959;28;20106;-70
2021/12/12 02:11:34;;;;;;;75.80;40.97;;;-1.60;99.90;;;;;;2055132;28;20035;-70
2021/12/12 02:12:35;;;;;;;76.20;40.63;;;-1.60;99.90;;;;;;2055886;28;20027;-70
2021/12/12 02:13:40;;;;;;;77.35;40.25;;;-1.60;99.90;;;;;;2054991;28;20403;-70
2021/12/12 02:14:42;;;;;;;74.10;40.47;;;-1.60;99.90;;;;;;2054966;28;20427;-70
2021/12/12 02:15:46;;;;;;;74.25;40.20;;;-1.60;99.90;;;;;;2055146;28;20046;-70
2021/12/12 02:16:53;;;;;;;73.10;40.00;;;-1.60;99.90;;;;;;2055241;28;20603;-71
2021/12/12 02:17:54;;;;;;;75.97;39.80;;;-1.60;99.90;;;;;;2054830;28;20034;-70
2021/12/12 02:18:58;;;;;;;77.03;40.03;;;-1.60;99.90;;;;;;2059621;28;20098;-69
2021/12/12 02:20:08;;;;;;;77.78;40.30;;;-1.60;99.90;;;;;;2059203;28;20469;-69
2021/12/12 02:21:34;;;;;;;79.35;40.83;;;-1.60;99.90;;;;;;2055866;28;20027;-70
2021/12/12 02:35:09;;;;;;;68.87;36.80;;;-1.50;99.90;;;;;;2064016;28;20050;-70
2021/12/12 02:36:12;;;;;;;;;;;-1.50;99.90;;;;;;2064175;28;20278;-70
2021/12/12 02:37:13;;;;;;;69.30;36.33;;;-1.60;99.90;;;;;;2063725;28;19914;-70
2021/12/12 02:38:27;;;;;;;67.78;36.28;;;-1.60;99.90;;;;;;2062669;28;20532;-71
2021/12/12 02:39:32;;;;;;;62.92;35.00;;;-1.60;99.90;;;;;;2049663;28;20042;-70
2021/12/12 02:40:40;;;;;;;66.35;35.25;;;-1.60;99.90;;;;;;2054775;28;20046;-70
2021/12/12 02:41:47;;;;;;;63.53;34.80;;;-1.60;99.90;;;;;;2059548;28;20490;-70
2021/12/12 02:42:47;;;;;;;70.40;36.60;;;-1.60;99.90;;;;;;2071574;28;20046;-70
2021/12/12 02:43:52;;;;;;;67.85;36.30;;;-1.70;99.90;;;;;;2055822;28;20042;-70
2021/12/12 02:44:57;;;;;;;73.53;37.45;;;-1.70;99.90;;;;;;2063105;28;20038;-70
2021/12/12 02:45:58;;;;;;;76.63;38.15;;;-1.70;99.90;;;;;;2054990;28;20045;-70
2021/12/12 02:47:08;;;;;;;70.80;36.72;;;-1.70;99.90;;;;;;2055487;28;20026;-70
2021/12/12 02:48:16;;;;;;;70.30;36.25;;;-1.70;99.90;;;;;;2054302;28;20573;-70
2021/12/12 02:49:39;;;;;;;68.78;35.08;;;-1.70;99.90;;;;;;2054286;28;20046;-69
2021/12/12 02:50:42;;;;;;;72.93;35.65;;;-1.70;99.90;;;;;;2054715;28;20035;-70
2021/12/12 02:51:43;;;;;;;74.22;37.03;;;-1.70;99.90;;;;;;2054393;28;20080;-70
2021/12/12 02:52:50;;;;;;;72.43;37.28;;;-1.70;99.90;;;;;;2060309;28;20039;-70
2021/12/12 02:53:55;;;;;;;71.45;37.33;;;-1.70;99.90;;;;;;2063370;28;20037;-70
2021/12/12 02:55:04;;;;;;;73.70;37.35;;;-1.70;99.90;;;;;;2063312;28;20091;-70
2021/12/12 02:56:27;;;;;;;70.85;36.95;;;-1.70;99.90;;;;;;2063397;28;20102;-70
2021/12/12 02:57:28;;;;;;;68.57;36.70;;;-1.70;99.90;;;;;;2063254;28;20034;-70
2021/12/12 02:58:29;;;;;;;67.97;35.65;;;-1.70;99.90;;;;;;2060827;28;20041;-70
2021/12/12 02:59:30;;;;;;;69.05;35.65;;;-1.70;99.90;;;;;;2055261;28;20081;-70
2021/12/12 03:00:38;;;;;;;63.38;35.10;;;-1.70;99.90;;;;;;2055442;28;20033;-70
2021/12/12 03:01:46;;;;;;;65.43;34.97;;;-1.70;99.90;;;;;;2054482;28;20043;-70
2021/12/12 03:02:56;;;;;;;65.28;34.22;;;-1.70;99.90;;;;;;2054976;28;20468;-70
2021/12/12 03:03:57;;;;;;;63.50;32.67;;;-1.70;99.90;;;;;;2054960;28;20046;-70
2021/12/12 03:05:04;;;;;;;61.40;33.78;;;-1.70;99.90;;;;;;2054432;28;20027;-70
2021/12/12 03:06:07;;;;;;;64.47;34.30;;;-1.70;99.90;;;;;;2055336;28;20131;-70
2021/12/12 03:07:10;;;;;;;65.05;35.22;;;-1.70;99.90;;;;;;2054715;28;20375;-70
2021/12/12 03:08:13;;;;;;;66.03;34.33;;;-1.70;99.90;;;;;;2054219;28;20026;-70
2021/12/12 03:09:24;;;;;;;61.47;33.83;;;-1.80;99.90;;;;;;2054704;28;20034;-70
2021/12/12 03:10:29;;;;;;;61.25;33.42;;;-1.70;99.90;;;;;;2054669;28;20114;-70
2021/12/12 03:11:30;;;;;;;63.03;33.10;;;-1.70;99.90;;;;;;2054484;28;20031;-70
2021/12/12 03:12:34;;;;;;;64.85;34.50;;;-1.80;99.90;;;;;;2055176;28;20081;-70
2021/12/12 03:13:35;;;;;;;65.10;35.38;;;-1.70;99.90;;;;;;2054327;28;20054;-70
2021/12/12 03:14:36;;;;;;;61.20;33.60;;;-1.70;99.90;;;;;;2054492;28;20023;-70
2021/12/12 03:15:40;;;;;;;59.83;32.97;;;-1.80;99.90;;;;;;2054684;28;20034;-70
2021/12/12 03:16:41;;;;;;;58.95;32.90;;;-1.80;99.90;;;;;;2055123;28;20031;-71
2021/12/12 03:17:44;;;;;;;60.95;32.53;;;-1.80;99.90;;;;;;2057914;28;20051;-70
2021/12/12 03:18:45;;;;;;;63.70;33.20;;;-1.80;99.90;;;;;;2054270;28;20144;-70
2021/12/12 03:19:54;;;;;;;55.47;31.52;;;-1.80;99.90;;;;;;2054377;28;20189;-70
2021/12/12 03:20:59;;;;;;;58.30;32.80;;;-1.80;99.90;;;;;;2063364;28;20022;-70
2021/12/12 03:22:00;;;;;;;60.58;32.53;;;-1.80;99.90;;;;;;2063076;28;20072;-70
2021/12/12 03:23:04;;;;;;;59.88;33.08;;;-1.80;99.90;;;;;;2054611;28;20034;-71
2021/12/12 03:24:13;;;;;;;57.72;32.10;;;-1.80;99.90;;;;;;2047376;28;20534;-71
2021/12/12 03:25:13;;;;;;;56.97;31.88;;;-1.80;99.90;;;;;;2055682;28;20049;-70
2021/12/12 03:26:16;;;;;;;57.75;32.72;;;-1.80;99.90;;;;;;2062492;28;20541;-69
2021/12/12 03:27:20;;;;;;;60.60;33.20;;;-1.80;99.90;;;;;;2063077;28;20119;-69
2021/12/12 03:28:23;;;;;;;60.50;32.08;;;-1.80;99.90;;;;;;2062597;28;20022;-69
2021/12/12 03:29:26;;;;;;;60.78;32.78;;;-1.80;99.90;;;;;;2063150;28;20035;-69
2021/12/12 03:30:28;;;;;;;59.40;32.50;;;-1.80;99.90;;;;;;2063153;28;20042;-69
2021/12/12 03:31:38;;;;;;;58.05;33.53;;;-1.90;99.90;;;;;;2062617;28;20022;-70
2021/12/12 03:32:39;;;;;;;60.95;33.53;;;-1.90;99.90;;;;;;2055383;28;20105;-70
2021/12/12 03:33:39;;;;;;;62.38;34.17;;;-1.90;99.90;;;;;;2055217;28;20031;-70
2021/12/12 03:34:45;;;;;;;63.13;34.83;;;-1.90;99.90;;;;;;2054965;28;20152;-70
2021/12/12 03:35:52;;;;;;;61.50;33.90;;;-1.90;99.90;;;;;;2055050;28;20097;-70
2021/12/12 03:36:53;;;;;;;63.22;34.78;;;-1.90;99.90;;;;;;2055396;28;20019;-69
2021/12/12 03:37:54;;;;;;;68.18;35.45;;;-2.00;99.90;;;;;;2055009;28;20031;-70
2021/12/12 03:38:59;;;;;;;69.70;37.90;;;-1.90;99.90;;;;;;2054949;28;20049;-70
2021/12/12 03:40:08;;;;;;;75.60;38.90;;;-1.90;99.90;;;;;;2056017;28;20027;-71
2021/12/12 03:41:12;;;;;;;70.63;38.78;;;-2.00;99.90;;;;;;2061258;28;20073;-71
2021/12/12 03:42:18;;;;;;;72.63;36.70;;;-2.00;99.90;;;;;;2063841;28;20041;-71
2021/12/12 03:43:18;;;;;;;72.22;37.50;;;-2.00;99.90;;;;;;2058717;28;20038;-70
2021/12/12 03:44:22;;;;;;;69.20;36.80;;;-2.00;99.90;;;;;;2056381;28;20791;-71
2021/12/12 03:45:23;;;;;;;77.95;37.92;;;-2.00;99.90;;;;;;2056632;28;20027;-71
2021/12/12 03:46:25;;;;;;;72.78;36.55;;;-2.00;99.90;;;;;;2064295;28;20034;-71
2021/12/12 03:47:32;;;;;;;71.50;36.85;;;-2.00;99.90;;;;;;2063044;28;20042;-70
2021/12/12 03:48:34;;;;;;;69.30;36.85;;;-2.10;99.90;;;;;;2054806;28;20027;-70
2021/12/12 03:49:37;;;;;;;66.47;35.45;;;-2.10;99.90;;;;;;2054965;28;20037;-70
2021/12/12 03:50:41;;;;;;;66.53;35.70;;;-2.10;99.90;;;;;;2055138;28;20527;-70
2021/12/12 03:51:43;;;;;;;66.07;35.15;;;-2.10;99.90;;;;;;2055265;28;20027;-70
2021/12/12 03:52:46;;;;;;;66.60;35.50;;;-2.10;99.90;;;;;;2054492;28;20031;-71
2021/12/12 03:53:47;;;;;;;66.82;34.30;;;-2.10;99.90;;;;;;2055257;28;20095;-70
2021/12/12 03:55:00;;;;;;;63.97;34.33;;;-2.10;99.90;;;;;;2054666;28;20031;-71
2021/12/12 03:56:01;;;;;;;63.83;34.35;;;-2.10;99.90;;;;;;2056755;28;20031;-71
2021/12/12 03:57:03;;;;;;;62.25;33.80;;;-2.10;99.90;;;;;;2062943;28;20022;-70
2021/12/12 03:58:05;;;;;;;61.97;32.95;;;-2.10;99.90;;;;;;2070767;28;20479;-71
2021/12/12 03:59:06;;;;;;;62.75;34.08;;;-2.10;99.90;;;;;;2069332;28;20580;-71
2021/12/12 04:00:17;;;;;;;62.75;33.25;;;-2.10;99.90;;;;;;2054529;28;20035;-71
2021/12/12 04:01:33;;;;;;;63.28;33.33;;;-2.10;99.90;;;;;;2054825;28;20035;-71
2021/12/12 04:02:34;;;;;;;61.05;32.35;;;-2.10;99.90;;;;;;2054987;28;20557;-70
2021/12/12 04:03:35;;;;;;;58.42;32.03;;;-2.10;99.90;;;;;;2054819;28;20039;-70
2021/12/12 04:04:40;;;;;;;58.60;32.22;;;-2.10;99.90;;;;;;2054419;28;20037;-71
2021/12/12 04:05:46;;;;;;;57.22;31.75;;;-2.20;99.90;;;;;;2054514;28;20039;-71
2021/12/12 04:06:48;;;;;;;58.35;32.42;;;-2.10;99.90;;;;;;2054897;28;20152;-70
2021/12/12 04:07:49;;;;;;;61.85;33.10;;;-2.20;99.90;;;;;;2054457;28;20030;-71
2021/12/12 04:08:52;;;;;;;61.28;32.50;;;-2.20;99.90;;;;;;2064279;28;20112;-71
2021/12/12 04:09:54;;;;;;;59.47;32.70;;;-2.20;99.90;;;;;;2071805;28;20031;-71
2021/12/12 04:10:55;;;;;;;57.17;30.95;;;-2.20;99.90;;;;;;2054960;28;20018;-70
2021/12/12 04:11:59;;;;;;;56.90;31.13;;;-2.20;99.90;;;;;;2054630;28;20059;-71
2021/12/12 04:13:00;;;;;;;57.83;31.23;;;-2.20;99.90;;;;;;2054415;28;20046;-70
2021/12/12 04:14:04;;;;;;;55.70;31.15;;;-2.20;99.90;;;;;;2054313;28;20537;-71
2021/12/12 04:15:06;;;;;;;53.42;30.25;;;-2.20;99.90;;;;;;2054877;28;20478;-70
2021/12/12 04:16:06;;;;;;;59.28;31.70;;;-2.20;99.90;;;;;;2054921;28;20037;-71
2021/12/12 04:17:13;;;;;;;57.03;31.40;;;-2.20;99.90;;;;;;2054098;28;20068;-71
2021/12/12 04:18:18;;;;;;;56.92;31.35;;;-2.20;99.90;;;;;;2053619;28;20046;-72
2021/12/12 04:19:19;;;;;;;56.15;30.95;;;-2.20;99.90;;;;;;2054891;28;20062;-71
2021/12/12 04:20:25;;;;;;;56.50;30.65;;;-2.20;99.90;;;;;;2054476;28;20038;-71
2021/12/12 04:21:29;;;;;;;55.40;30.98;;;-2.20;99.90;;;;;;2070112;28;20026;-71
2021/12/12 04:22:34;;;;;;;56.17;31.20;;;-2.20;99.90;;;;;;2054549;28;20497;-71
2021/12/12 04:23:35;;;;;;;59.97;30.92;;;-2.20;99.90;;;;;;2055082;28;20031;-71
2021/12/12 04:24:39;;;;;;;58.53;31.27;;;-2.20;99.90;;;;;;2054244;28;20039;-71
2021/12/12 04:25:40;;;;;;;56.83;30.83;;;-2.20;99.90;;;;;;2054160;28;20065;-70
2021/12/12 04:26:42;;;;;;;57.97;31.40;;;-2.20;99.90;;;;;;2054486;28;20134;-71
2021/12/12 04:27:44;;;;;;;60.40;32.38;;;-2.20;99.90;;;;;;2054969;28;20106;-71
2021/12/12 04:28:53;;;;;;;56.92;31.10;;;-2.20;99.90;;;;;;2054356;28;20107;-69
2021/12/12 04:29:55;;;;;;;60.83;31.88;;;-2.20;99.90;;;;;;2058261;28;20029;-69
2021/12/12 04:30:56;;;;;;;60.17;32.88;;;-2.20;99.90;;;;;;2062560;28;20018;-69
2021/12/12 04:32:07;;;;;;;57.03;32.08;;;-2.10;99.90;;;;;;2062262;28;20022;-69
2021/12/12 04:33:08;;;;;;;53.50;30.83;;;-2.20;99.90;;;;;;2054143;28;20042;-69
2021/12/12 04:34:09;;;;;;;56.35;31.25;;;-2.10;99.90;;;;;;2053718;28;20034;-69
2021/12/12 04:35:20;;;;;;;55.38;31.00;;;-2.10;99.90;;;;;;2054866;28;20038;-69
2021/12/12 04:36:35;;;;;;;62.47;33.58;;;-2.10;99.90;;;;;;2054284;28;20031;-69
2021/12/12 04:37:36;;;;;;;59.33;32.67;;;-2.00;99.90;;;;;;2056031;28;20101;-69
2021/12/12 04:38:37;;;;;;;61.90;32.78;;;-2.00;99.90;;;;;;2062219;28;20041;-69
2021/12/12 04:39:41;;;;;;;55.92;31.63;;;-2.00;99.90;;;;;;2062585;28;20102;-69
2021/12/12 04:40:42;;;;;;;59.65;32.20;;;-1.90;99.90;;;;;;2062882;28;20540;-69
2021/12/12 04:41:45;;;;;;;60.28;32.13;;;-1.90;99.90;;;;;;2062384;28;20565;-70
2021/12/12 04:42:47;;;;;;;56.88;31.00;;;-1.90;99.90;;;;;;2062641;28;20054;-70
2021/12/12 04:43:47;;;;;;;54.03;30.55;;;-1.90;99.90;;;;;;2062729;28;20092;-70
2021/12/12 04:44:52;;;;;;;53.35;30.77;;;-1.90;99.90;;;;;;2062778;28;20496;-70
2021/12/12 04:46:02;;;;;;;54.35;30.83;;;-1.90;99.90;;;;;;2062519;28;20014;-70
2021/12/12 04:50:31;;;;;;;54.70;29.85;;;-1.90;99.90;;;;;;2054697;28;20156;-69
2021/12/12 04:51:40;;;;;;;56.55;29.80;;;-1.80;99.90;;;;;;2054522;28;20425;-69
2021/12/12 04:52:56;;;;;;;55.78;29.73;;;-1.80;99.90;;;;;;2055009;28;20110;-68
2021/12/12 04:54:09;;;;;;;55.67;30.35;;;-1.80;99.90;;;;;;2054539;28;20545;-69
2021/12/12 04:55:13;;;;;;;54.13;30.25;;;-1.70;99.90;;;;;;2054470;28;20825;-69
2021/12/12 04:56:19;;;;;;;53.35;29.70;;;-1.70;99.90;;;;;;2054550;28;20121;-69
2021/12/12 04:57:26;;;;;;;52.55;30.02;;;-1.70;99.90;;;;;;2054341;28;20027;-69
2021/12/12 04:58:38;;;;;;;56.25;30.85;;;-1.60;99.90;;;;;;2054921;28;20038;-69
2021/12/12 04:59:49;;;;;;;53.17;30.20;;;-1.60;99.90;;;;;;2055934;28;20390;-70
2021/12/12 05:01:06;;;;;;;53.65;30.15;;;-1.60;99.90;;;;;;2055276;28;20118;-69
2021/12/12 05:02:25;;;;;;;54.65;30.98;;;-1.50;99.90;;;;;;2056685;28;20030;-70
2021/12/12 05:03:41;;;;;;;54.10;29.42;;;-1.50;99.90;;;;;;2062183;28;20053;-70
2021/12/12 05:04:59;;;;;;;52.97;28.48;;;-1.50;99.90;;;;;;2056236;28;20027;-69
2021/12/12 05:06:03;;;;;;;54.33;29.92;;;-1.40;99.90;;;;;;2056293;28;20043;-68
2021/12/12 05:07:19;;;;;;;53.60;29.35;;;-1.40;99.90;;;;;;2061513;28;20082;-69
2021/12/12 05:08:36;;;;;;;50.38;28.45;;;-1.40;99.90;;;;;;2055584;28;20192;-68
2021/12/12 05:09:53;;;;;;;49.95;28.65;;;-1.30;99.90;;;;;;2055846;28;20039;-69
2021/12/12 05:10:59;;;;;;;53.03;30.15;;;-1.30;99.90;;;;;;2059349;28;20164;-69
2021/12/12 05:12:05;;;;;;;53.03;29.65;;;-1.30;99.90;;;;;;2055733;28;20059;-69
2021/12/12 05:13:17;;;;;;;55.22;30.55;;;-1.30;99.90;;;;;;2061938;28;20501;-69
2021/12/12 05:14:23;;;;;;;54.67;30.98;;;-1.30;99.90;;;;;;2063626;28;20080;-69
2021/12/12 05:15:39;;;;;;;55.03;29.88;;;-1.20;99.90;;;;;;2063290;28;20025;-69
2021/12/12 05:16:43;;;;;;;53.67;29.23;;;-1.20;99.90;;;;;;2055030;28;20031;-71
2021/12/12 05:17:49;;;;;;;50.88;28.85;;;-1.20;99.90;;;;;;2055497;28;20046;-69
2021/12/12 05:18:55;;;;;;;50.47;28.27;;;-1.20;99.90;;;;;;2055711;28;20038;-69
2021/12/12 05:20:03;;;;;;;49.05;28.20;;;-1.20;99.90;;;;;;2062955;28;20038;-71
2021/12/12 05:21:10;;;;;;;48.20;28.00;;;-1.20;99.90;;;;;;2064137;28;20086;-69
2021/12/12 05:22:29;;;;;;;53.33;29.60;;;-1.20;99.90;;;;;;2063612;28;20034;-69
2021/12/12 05:23:32;;;;;;;54.30;29.88;;;-1.20;99.90;;;;;;2063899;28;20038;-69
2021/12/12 05:24:36;;;;;;;53.17;29.45;;;-1.20;99.90;;;;;;2063304;28;20026;-69
2021/12/12 05:25:50;;;;;;;50.42;28.55;;;-1.20;99.90;;;;;;2063449;28;20109;-69
2021/12/12 05:26:58;;;;;;;49.47;27.92;;;-1.20;99.90;;;;;;2063489;28;20035;-69
2021/12/12 05:28:00;;;;;;;48.83;28.60;;;-1.20;99.90;;;;;;2064166;28;20087;-69
2021/12/12 05:29:04;;;;;;;51.10;28.67;;;-1.20;99.90;;;;;;2063585;28;20019;-69
2021/12/12 05:30:11;;;;;;;51.00;28.75;;;-1.10;99.90;;;;;;2063679;28;20038;-71
2021/12/12 05:31:12;;;;;;;47.60;27.25;;;-1.10;99.90;;;;;;2063955;28;20544;-69
2021/12/12 05:32:14;;;;;;;44.45;26.13;;;-1.20;99.90;;;;;;2063590;28;20027;-69
2021/12/12 05:33:16;;;;;;;50.92;27.95;;;-1.10;99.90;;;;;;2064127;28;20509;-69
2021/12/12 05:34:19;;;;;;;46.58;26.73;;;-1.10;99.90;;;;;;2063530;28;20030;-69
2021/12/12 05:35:26;;;;;;;48.92;27.20;;;-1.10;99.90;;;;;;2064036;28;20034;-69
2021/12/12 05:36:28;;;;;;;47.97;26.38;;;-1.10;99.90;;;;;;2064035;28;20030;-69
2021/12/12 05:37:29;;;;;;;46.60;27.17;;;-1.10;99.90;;;;;;2063654;28;20404;-69
2021/12/12 05:38:30;;;;;;;48.05;26.77;;;-1.10;99.90;;;;;;2063365;28;20067;-69
2021/12/12 05:39:33;;;;;;;45.47;26.80;;;-1.00;99.90;;;;;;2063893;28;20059;-69
2021/12/12 05:40:36;;;;;;;44.95;26.48;;;-1.00;99.90;;;;;;2063159;28;20077;-69
2021/12/12 05:41:36;;;;;;;44.88;26.48;;;-1.00;99.90;;;;;;2062857;28;20025;-69
2021/12/12 05:42:37;;;;;;;47.35;26.70;;;-1.00;99.90;;;;;;2063961;28;20694;-69
2021/12/12 05:43:38;;;;;;;43.78;26.55;;;-1.00;99.90;;;;;;2064030;28;20049;-69
2021/12/12 05:44:40;;;;;;;44.13;26.05;;;-1.00;99.90;;;;;;2063353;28;20077;-69
2021/12/12 05:45:41;;;;;;;45.95;26.63;;;-1.00;99.90;;;;;;2058836;28;20690;-69
2021/12/12 05:46:42;;;;;;;44.45;26.77;;;-1.00;99.90;;;;;;2056107;28;20139;-69
2021/12/12 05:47:43;;;;;;;43.25;26.25;;;-1.00;99.90;;;;;;2048131;28;20043;-69
2021/12/12 05:48:46;;;;;;;45.70;26.33;;;-1.00;99.90;;;;;;2051415;28;20098;-69
2021/12/12 05:49:47;;;;;;;47.80;26.40;;;-1.00;99.90;;;;;;2063477;28;20027;-67